createdAt,value
2018-04-15T00:00:17.766Z,12.30
2018-04-15T00:02:45.265Z,12.30
2018-04-15T00:05:12.729Z,12.30
2018-04-15T00:07:41.002Z,12.20
2018-04-15T00:10:09.233Z,12.20
2018-04-15T00:12:36.747Z,12.10
2018-04-15T00:15:04.988Z,12.10
2018-04-15T00:17:32.483Z,12.10
2018-04-15T00:20:01.751Z,12.10
2018-04-15T00:22:29.248Z,12.10
2018-04-15T00:24:56.719Z,12.00
2018-04-15T00:27:24.221Z,12.00
2018-04-15T00:29:51.696Z,12.00
2018-04-15T00:32:19.195Z,12.00
2018-04-15T00:34:46.661Z,11.90
2018-04-15T00:37:14.165Z,12.00
2018-04-15T00:39:41.660Z,11.90
2018-04-15T00:42:09.165Z,11.90
2018-04-15T00:44:36.647Z,11.90
2018-04-15T00:47:04.142Z,11.80
2018-04-15T00:49:31.632Z,11.80
2018-04-15T00:51:59.193Z,11.80
2018-04-15T00:54:26.675Z,11.80
2018-04-15T00:56:54.181Z,11.70
2018-04-15T00:59:21.663Z,11.70
2018-04-15T01:01:49.163Z,11.70
2018-04-15T01:04:17.415Z,11.70
2018-04-15T01:06:44.917Z,11.70
2018-04-15T01:09:12.408Z,11.70
2018-04-15T01:11:39.903Z,11.70
2018-04-15T01:14:07.378Z,11.70
2018-04-15T01:16:35.660Z,11.70
2018-04-15T01:19:03.889Z,11.70
2018-04-15T01:21:31.386Z,11.70
2018-04-15T01:23:58.849Z,11.70
2018-04-15T01:26:26.377Z,11.70
2018-04-15T01:28:53.863Z,11.60
2018-04-15T01:31:22.121Z,11.60
2018-04-15T01:33:50.365Z,11.60
2018-04-15T01:36:17.884Z,11.60
2018-04-15T01:38:45.353Z,11.60
2018-04-15T01:41:13.075Z,11.50
2018-04-15T01:43:40.556Z,11.40
2018-04-15T01:46:08.019Z,11.40
2018-04-15T01:48:35.529Z,11.40
2018-04-15T01:51:02.998Z,11.40
2018-04-15T01:53:30.484Z,11.40
2018-04-15T01:55:57.967Z,11.40
2018-04-15T01:58:25.464Z,11.30
2018-04-15T02:00:52.942Z,11.30
2018-04-15T02:03:21.196Z,11.30
2018-04-15T02:05:48.686Z,11.30
2018-04-15T02:08:17.048Z,11.30
2018-04-15T02:10:44.960Z,11.30
2018-04-15T02:13:12.473Z,11.30
2018-04-15T02:15:39.950Z,11.30
2018-04-15T02:18:08.201Z,11.30
2018-04-15T02:20:35.739Z,11.30
2018-04-15T02:23:03.243Z,11.20
2018-04-15T02:25:31.496Z,11.20
2018-04-15T02:27:58.989Z,11.10
2018-04-15T02:30:26.458Z,11.10
2018-04-15T02:32:53.941Z,11.10
2018-04-15T02:35:21.441Z,11.10
2018-04-15T02:37:49.703Z,11.10
2018-04-15T02:40:17.194Z,11.10
2018-04-15T02:42:44.680Z,11.00
2018-04-15T02:45:12.178Z,11.00
2018-04-15T02:47:39.675Z,11.00
2018-04-15T02:50:07.192Z,11.00
2018-04-15T02:52:34.668Z,11.00
2018-04-15T02:55:02.939Z,11.10
2018-04-15T02:57:31.172Z,11.10
2018-04-15T02:59:58.658Z,11.00
2018-04-15T03:02:26.135Z,11.10
2018-04-15T03:04:54.410Z,11.10
2018-04-15T03:07:22.658Z,11.10
2018-04-15T03:09:50.162Z,11.10
2018-04-15T03:12:17.682Z,11.10
2018-04-15T03:14:46.136Z,11.20
2018-04-15T03:17:13.599Z,11.10
2018-04-15T03:19:41.093Z,11.10
2018-04-15T03:22:08.595Z,11.10
2018-04-15T03:24:36.063Z,11.10
2018-04-15T03:27:03.637Z,11.10
2018-04-15T03:29:31.081Z,11.10
2018-04-15T03:31:58.600Z,11.10
2018-04-15T03:34:26.340Z,11.10
2018-04-15T03:36:54.625Z,11.10
2018-04-15T03:39:22.875Z,11.10
2018-04-15T03:41:50.369Z,11.10
2018-04-15T03:44:17.863Z,11.10
2018-04-15T03:46:45.367Z,11.20
2018-04-15T03:49:13.608Z,11.20
2018-04-15T03:51:41.119Z,11.20
2018-04-15T03:54:09.364Z,11.20
2018-04-15T03:56:36.880Z,11.20
2018-04-15T03:59:04.354Z,11.20
2018-04-15T04:01:31.872Z,11.20
2018-04-15T04:04:00.113Z,11.20
2018-04-15T04:06:27.631Z,11.10
2018-04-15T04:08:55.111Z,11.10
2018-04-15T04:11:22.636Z,11.10
2018-04-15T04:13:50.887Z,11.10
2018-04-15T04:16:19.149Z,11.10
2018-04-15T04:18:59.127Z,11.10
2018-04-15T04:21:38.542Z,11.10
2018-04-15T04:24:18.759Z,11.10
2018-04-15T04:26:46.265Z,11.10
2018-04-15T04:29:14.512Z,11.00
2018-04-15T04:31:42.031Z,11.00
2018-04-15T04:34:09.517Z,11.00
2018-04-15T04:36:37.020Z,10.90
2018-04-15T04:39:06.102Z,10.90
2018-04-15T04:41:34.372Z,10.90
2018-04-15T04:44:02.630Z,10.80
2018-04-15T04:46:30.124Z,10.80
2018-04-15T04:48:58.380Z,10.80
2018-04-15T04:51:25.890Z,10.80
2018-04-15T04:53:53.378Z,10.80
2018-04-15T04:56:20.895Z,10.80
2018-04-15T04:58:48.378Z,10.80
2018-04-15T05:01:15.884Z,10.70
2018-04-15T05:03:44.136Z,10.80
2018-04-15T05:06:11.663Z,10.70
2018-04-15T05:08:39.139Z,10.80
2018-04-15T05:11:06.642Z,10.80
2018-04-15T05:13:34.887Z,10.80
2018-04-15T05:16:02.422Z,10.80
2018-04-15T05:18:29.914Z,10.90
2018-04-15T05:20:57.424Z,10.80
2018-04-15T05:23:24.899Z,10.80
2018-04-15T05:25:52.415Z,10.80
2018-04-15T05:28:19.917Z,10.80
2018-04-15T05:30:47.446Z,10.80
2018-04-15T05:33:14.931Z,10.80
2018-04-15T05:35:42.445Z,10.80
2018-04-15T05:38:09.924Z,10.90
2018-04-15T05:40:37.430Z,10.90
2018-04-15T05:43:04.906Z,11.00
2018-04-15T05:45:33.335Z,11.00
2018-04-15T05:48:00.817Z,11.00
2018-04-15T05:50:28.319Z,11.10
2018-04-15T05:52:55.810Z,11.10
2018-04-15T05:55:23.289Z,11.10
2018-04-15T05:57:50.791Z,11.20
2018-04-15T06:00:18.285Z,11.20
2018-04-15T06:02:45.811Z,11.30
2018-04-15T06:05:13.334Z,11.20
2018-04-15T06:07:40.802Z,11.30
2018-04-15T06:10:09.128Z,11.40
2018-04-15T06:12:36.664Z,11.40
2018-04-15T06:15:04.168Z,11.40
2018-04-15T06:17:31.690Z,11.50
2018-04-15T06:19:59.193Z,11.70
2018-04-15T06:22:26.694Z,11.80
2018-04-15T06:24:54.183Z,11.90
2018-04-15T06:27:21.680Z,11.90
2018-04-15T06:29:49.171Z,11.90
2018-04-15T06:32:16.696Z,11.90
2018-04-15T06:34:44.974Z,12.10
2018-04-15T06:37:12.469Z,12.10
2018-04-15T06:39:39.978Z,12.20
2018-04-15T06:42:07.472Z,12.30
2018-04-15T06:44:34.944Z,12.30
2018-04-15T06:47:02.466Z,12.40
2018-04-15T06:49:30.721Z,12.50
2018-04-15T06:51:58.327Z,12.50
2018-04-15T06:54:25.840Z,12.50
2018-04-15T06:56:53.334Z,12.60
2018-04-15T06:59:21.585Z,13.00
2018-04-15T07:01:49.083Z,12.90
2018-04-15T07:04:16.554Z,13.10
2018-04-15T07:06:44.057Z,13.30
2018-04-15T07:09:11.558Z,13.40
2018-04-15T07:11:39.051Z,13.30
2018-04-15T07:14:06.531Z,13.40
2018-04-15T07:16:34.038Z,13.50
2018-04-15T07:19:01.534Z,13.70
2018-04-15T07:21:29.048Z,13.80
2018-04-15T07:23:56.535Z,14.00
2018-04-15T07:26:24.038Z,14.10
2018-04-15T07:28:52.270Z,14.20
2018-04-15T07:31:19.783Z,14.20
2018-04-15T07:33:50.977Z,14.30
2018-04-15T07:36:20.446Z,14.30
2018-04-15T07:38:48.038Z,14.50
2018-04-15T07:41:15.548Z,14.60
2018-04-15T07:43:43.798Z,14.40
2018-04-15T07:46:11.363Z,14.40
2018-04-15T07:48:38.838Z,14.40
2018-04-15T07:51:07.100Z,14.90
2018-04-15T07:53:34.610Z,14.90
2018-04-15T07:56:02.852Z,15.60
2018-04-15T07:58:31.110Z,15.70
2018-04-15T08:00:59.387Z,15.70
2018-04-15T08:03:27.633Z,15.70
2018-04-15T08:05:55.270Z,15.80
2018-04-15T08:08:22.758Z,15.90
2018-04-15T08:10:50.244Z,16.00
2018-04-15T08:13:18.535Z,16.50
2018-04-15T08:15:46.794Z,16.70
2018-04-15T08:18:15.084Z,16.90
2018-04-15T08:20:43.334Z,17.10
2018-04-15T08:23:10.852Z,17.10
2018-04-15T08:25:38.328Z,17.40
2018-04-15T08:28:05.840Z,17.50
2018-04-15T08:30:33.316Z,17.50
2018-04-15T08:33:00.847Z,17.70
2018-04-15T08:35:28.332Z,17.90
2018-04-15T08:37:55.845Z,18.70
2018-04-15T08:40:23.319Z,19.80
2018-04-15T08:42:51.587Z,21.00
2018-04-15T08:45:19.844Z,21.10
2018-04-15T08:47:47.356Z,21.00
2018-04-15T08:50:14.847Z,21.00
2018-04-15T08:52:42.361Z,21.10
2018-04-15T08:55:09.848Z,21.20
2018-04-15T08:57:37.364Z,21.70
2018-04-15T09:00:04.834Z,22.40
2018-04-15T09:02:32.342Z,23.20
2018-04-15T09:04:59.830Z,23.90
2018-04-15T09:07:28.090Z,24.10
2018-04-15T09:09:55.579Z,24.10
2018-04-15T09:12:23.074Z,24.50
2018-04-15T09:14:50.553Z,25.00
2018-04-15T09:17:18.083Z,24.50
2018-04-15T09:19:45.564Z,23.90
2018-04-15T09:22:13.067Z,23.10
2018-04-15T09:24:40.554Z,22.20
2018-04-15T09:27:08.062Z,21.80
2018-04-15T09:29:36.346Z,21.40
2018-04-15T09:32:03.840Z,21.40
2018-04-15T09:34:31.319Z,21.50
2018-04-15T09:36:58.826Z,21.40
2018-04-15T09:39:27.053Z,22.10
2018-04-15T09:41:54.577Z,22.10
2018-04-15T09:44:22.068Z,22.90
2018-04-15T09:46:49.574Z,24.10
2018-04-15T09:49:17.807Z,26.10
2018-04-15T09:51:45.324Z,26.00
2018-04-15T09:54:12.820Z,27.40
2018-04-15T09:56:40.336Z,27.70
2018-04-15T09:59:07.863Z,27.30
2018-04-15T10:01:35.322Z,26.60
2018-04-15T10:04:02.795Z,26.00
2018-04-15T10:06:31.064Z,25.40
2018-04-15T10:08:59.337Z,25.40
2018-04-15T10:11:27.629Z,25.50
2018-04-15T10:13:55.884Z,25.40
2018-04-15T10:16:23.397Z,25.40
2018-04-15T10:18:50.892Z,25.20
2018-04-15T10:21:19.172Z,24.80
2018-04-15T10:23:46.624Z,24.80
2018-04-15T10:26:14.106Z,24.70
2018-04-15T10:28:42.368Z,24.40
2018-04-15T10:31:10.621Z,24.30
2018-04-15T10:33:38.123Z,24.30
2018-04-15T10:36:05.602Z,24.40
2018-04-15T10:38:33.125Z,24.70
2018-04-15T10:41:01.371Z,26.40
2018-04-15T10:43:28.901Z,26.30
2018-04-15T10:45:56.376Z,27.10
2018-04-15T10:48:24.141Z,28.00
2018-04-15T10:50:51.609Z,30.10
2018-04-15T10:53:19.117Z,31.60
2018-04-15T10:55:46.593Z,31.90
2018-04-15T10:58:18.025Z,32.10
2018-04-15T11:00:45.502Z,32.00
2018-04-15T11:03:13.001Z,32.30
2018-04-15T11:05:40.639Z,32.90
2018-04-15T11:08:08.159Z,33.20
2018-04-15T11:10:35.667Z,33.10
2018-04-15T11:13:03.979Z,33.50
2018-04-15T11:15:32.210Z,34.10
2018-04-15T11:17:59.713Z,34.10
2018-04-15T11:20:28.486Z,33.10
2018-04-15T11:22:56.037Z,33.00
2018-04-15T11:25:23.507Z,32.70
2018-04-15T11:27:51.795Z,33.90
2018-04-15T11:30:20.054Z,33.40
2018-04-15T11:32:47.789Z,33.40
2018-04-15T11:35:15.263Z,33.60
2018-04-15T11:37:42.830Z,34.30
2018-04-15T11:40:10.346Z,34.80
2018-04-15T11:42:37.899Z,34.80
2018-04-15T11:45:05.424Z,34.60
2018-04-15T11:47:33.677Z,34.60
2018-04-15T11:50:01.173Z,34.50
2018-04-15T11:52:28.661Z,35.60
2018-04-15T11:54:56.169Z,36.40
2018-04-15T11:57:24.437Z,36.90
2018-04-15T11:59:51.915Z,36.80
2018-04-15T12:02:20.219Z,35.70
2018-04-15T12:04:47.711Z,35.70
2018-04-15T12:07:15.237Z,35.80
2018-04-15T12:09:42.795Z,36.50
2018-04-15T12:12:10.320Z,37.20
2018-04-15T12:14:38.572Z,37.10
2018-04-15T12:17:06.095Z,37.10
2018-04-15T12:19:33.579Z,36.80
2018-04-15T12:22:01.093Z,37.90
2018-04-15T12:24:28.570Z,39.20
2018-04-15T12:26:56.085Z,38.90
2018-04-15T12:29:24.348Z,36.40
2018-04-15T12:31:51.838Z,36.40
2018-04-15T12:34:19.330Z,34.60
2018-04-15T12:36:46.824Z,33.40
2018-04-15T12:39:14.293Z,32.20
2018-04-15T12:41:42.585Z,31.10
2018-04-15T12:44:10.065Z,31.10
2018-04-15T12:46:37.563Z,31.60
2018-04-15T12:49:05.073Z,31.60
2018-04-15T12:51:32.584Z,32.20
2018-04-15T12:54:00.850Z,30.60
2018-04-15T12:56:28.368Z,30.60
2018-04-15T12:58:55.851Z,30.30
2018-04-15T13:01:23.358Z,29.90
2018-04-15T13:03:51.589Z,29.60
2018-04-15T13:06:19.118Z,29.60
2018-04-15T13:08:46.594Z,29.90
2018-04-15T13:11:14.098Z,30.70
2018-04-15T13:13:42.346Z,30.90
2018-04-15T13:16:09.850Z,30.80
2018-04-15T13:18:37.397Z,31.30
2018-04-15T13:21:05.673Z,33.40
2018-04-15T13:23:33.916Z,34.30
2018-04-15T13:26:01.411Z,34.30
2018-04-15T13:28:29.680Z,35.20
2018-04-15T13:30:57.995Z,34.50
2018-04-15T13:33:25.484Z,34.50
2018-04-15T13:35:52.982Z,33.40
2018-04-15T13:38:21.227Z,30.90
2018-04-15T13:40:48.718Z,30.80
2018-04-15T13:43:16.211Z,29.80
2018-04-15T13:45:43.675Z,28.50
2018-04-15T13:48:11.165Z,28.60
2018-04-15T13:50:38.702Z,28.50
2018-04-15T13:53:06.205Z,28.50
2018-04-15T13:55:34.478Z,28.40
2018-04-15T13:58:02.736Z,28.20
2018-04-15T14:00:30.223Z,28.20
2018-04-15T14:02:57.723Z,27.80
2018-04-15T14:05:25.204Z,27.20
2018-04-15T14:07:52.721Z,26.70
2018-04-15T14:10:20.193Z,26.40
2018-04-15T14:12:47.744Z,26.20
2018-04-15T14:15:15.244Z,26.20
2018-04-15T14:17:42.741Z,25.70
2018-04-15T14:20:10.232Z,25.00
2018-04-15T14:22:37.749Z,24.70
2018-04-15T14:25:05.208Z,24.50
2018-04-15T14:27:32.710Z,24.50
2018-04-15T14:30:00.196Z,24.70
2018-04-15T14:32:28.497Z,25.60
2018-04-15T14:34:55.983Z,25.50
2018-04-15T14:37:23.534Z,25.50
2018-04-15T14:39:53.020Z,25.40
2018-04-15T14:42:20.553Z,25.20
2018-04-15T14:44:48.834Z,24.90
2018-04-15T14:47:17.116Z,25.10
2018-04-15T14:49:45.372Z,25.40
2018-04-15T14:52:12.887Z,25.30
2018-04-15T14:54:40.380Z,25.50
2018-04-15T14:57:07.893Z,25.30
2018-04-15T14:59:35.372Z,25.30
2018-04-15T15:02:02.888Z,25.50
2018-04-15T15:04:31.189Z,25.50
2018-04-15T15:06:58.720Z,25.50
2018-04-15T15:09:26.959Z,25.40
2018-04-15T15:11:54.742Z,25.40
2018-04-15T15:14:22.259Z,25.50
2018-04-15T15:16:49.762Z,25.30
2018-04-15T15:19:17.317Z,25.00
2018-04-15T15:21:44.784Z,24.60
2018-04-15T15:24:13.022Z,24.70
2018-04-15T15:26:40.539Z,24.60
2018-04-15T15:29:08.006Z,24.60
2018-04-15T15:31:35.514Z,24.40
2018-04-15T15:34:03.016Z,24.40
2018-04-15T15:36:30.829Z,24.60
2018-04-15T15:38:58.320Z,24.40
2018-04-15T15:41:26.613Z,24.50
2018-04-15T15:43:54.085Z,24.50
2018-04-15T15:46:21.661Z,24.40
2018-04-15T15:48:49.165Z,24.20
2018-04-15T15:51:17.504Z,24.00
2018-04-15T15:53:44.997Z,24.00
2018-04-15T15:56:13.259Z,23.90
2018-04-15T15:58:40.769Z,23.90
2018-04-15T16:01:08.279Z,24.00
2018-04-15T16:03:35.807Z,23.70
2018-04-15T16:06:03.284Z,23.40
2018-04-15T16:08:31.387Z,23.10
2018-04-15T16:10:59.631Z,23.30
2018-04-15T16:13:27.887Z,23.30
2018-04-15T16:15:55.352Z,23.20
2018-04-15T16:18:22.863Z,22.90
2018-04-15T16:20:51.116Z,22.80
2018-04-15T16:23:18.625Z,22.80
2018-04-15T16:25:46.098Z,22.70
2018-04-15T16:28:13.612Z,22.80
2018-04-15T16:30:41.838Z,23.10
2018-04-15T16:33:10.052Z,23.00
2018-04-15T16:35:38.328Z,23.20
2018-04-15T16:38:06.604Z,23.20
2018-04-15T16:40:34.093Z,23.20
2018-04-15T16:43:01.590Z,23.20
2018-04-15T16:45:29.068Z,23.20
2018-04-15T16:47:57.591Z,23.10
2018-04-15T16:50:25.050Z,23.00
2018-04-15T16:52:52.574Z,22.90
2018-04-15T16:55:20.818Z,22.70
2018-04-15T16:57:48.302Z,22.70
2018-04-15T17:00:15.821Z,22.60
2018-04-15T17:02:43.304Z,22.50
2018-04-15T17:05:10.811Z,22.30
2018-04-15T17:07:39.078Z,22.20
2018-04-15T17:10:06.567Z,22.10
2018-04-15T17:12:34.130Z,22.00
2018-04-15T17:15:02.828Z,21.90
2018-04-15T17:17:30.306Z,21.70
2018-04-15T17:19:58.498Z,21.50
2018-04-15T17:22:26.752Z,21.20
2018-04-15T17:24:54.259Z,21.10
2018-04-15T17:27:21.736Z,20.90
2018-04-15T17:29:49.252Z,20.80
2018-04-15T17:32:16.716Z,20.60
2018-04-15T17:34:44.232Z,20.30
2018-04-15T17:37:12.593Z,20.20
2018-04-15T17:39:40.164Z,20.00
2018-04-15T17:42:07.642Z,19.90
2018-04-15T17:44:35.134Z,19.80
2018-04-15T17:47:02.632Z,19.60
2018-04-15T17:49:30.143Z,19.50
2018-04-15T17:51:57.632Z,19.30
2018-04-15T17:54:25.160Z,19.20
2018-04-15T17:56:52.651Z,18.90
2018-04-15T17:59:20.151Z,18.90
2018-04-15T18:01:47.629Z,18.80
2018-04-15T18:04:15.928Z,18.50
2018-04-15T18:06:44.431Z,18.40
2018-04-15T18:09:11.997Z,18.40
2018-04-15T18:11:39.437Z,18.20
2018-04-15T18:14:06.937Z,18.00
2018-04-15T18:16:34.411Z,17.90
2018-04-15T18:19:02.694Z,17.50
2018-04-15T18:21:30.196Z,17.40
2018-04-15T18:23:57.705Z,17.30
2018-04-15T18:26:25.938Z,16.80
2018-04-15T18:28:53.433Z,16.80
2018-04-15T18:31:21.713Z,16.40
2018-04-15T18:33:50.001Z,16.30
2018-04-15T18:36:17.585Z,16.20
2018-04-15T18:38:45.091Z,16.10
2018-04-15T18:41:12.596Z,15.90
2018-04-15T18:43:40.149Z,15.70
2018-04-15T18:46:07.621Z,15.60
2018-04-15T18:48:35.127Z,15.50
2018-04-15T18:51:02.594Z,15.30
2018-04-15T18:53:30.883Z,15.10
2018-04-15T18:55:58.396Z,15.10
2018-04-15T18:58:25.914Z,15.00
2018-04-15T19:00:53.386Z,14.90
2018-04-15T19:03:21.632Z,14.70
2018-04-15T19:05:49.879Z,14.40
2018-04-15T19:08:17.537Z,14.40
2018-04-15T19:10:45.757Z,14.30
2018-04-15T19:13:13.254Z,14.10
2018-04-15T19:15:40.736Z,14.00
2018-04-15T19:18:08.227Z,13.90
2018-04-15T19:20:35.712Z,13.80
2018-04-15T19:23:03.206Z,13.70
2018-04-15T19:25:30.672Z,13.60
2018-04-15T19:28:00.402Z,13.40
2018-04-15T19:30:28.637Z,13.30
2018-04-15T19:32:56.140Z,13.30
2018-04-15T19:35:23.630Z,13.20
2018-04-15T19:37:51.121Z,13.10
2018-04-15T19:40:18.599Z,13.10
2018-04-15T19:42:46.884Z,12.90
2018-04-15T19:45:15.128Z,12.90
2018-04-15T19:47:42.867Z,12.80
2018-04-15T19:50:10.339Z,12.80
2018-04-15T19:52:38.621Z,12.70
2018-04-15T19:55:06.083Z,12.70
2018-04-15T19:57:33.576Z,12.70
2018-04-15T20:00:01.085Z,12.60
2018-04-15T20:02:28.704Z,12.60
2018-04-15T20:04:56.282Z,12.50
2018-04-15T20:07:23.768Z,12.50
2018-04-15T20:09:51.286Z,12.40
2018-04-15T20:12:18.782Z,12.40
2018-04-15T20:14:46.370Z,12.30
2018-04-15T20:17:13.776Z,12.30
2018-04-15T20:19:43.255Z,12.20
2018-04-15T20:22:10.734Z,12.10
2018-04-15T20:24:38.242Z,12.10
2018-04-15T20:27:06.553Z,12.00
2018-04-15T20:29:34.027Z,12.00
2018-04-15T20:32:01.504Z,12.00
2018-04-15T20:34:29.135Z,12.00
2018-04-15T20:36:56.563Z,12.00
2018-04-15T20:39:25.091Z,11.90
2018-04-15T20:41:52.571Z,11.90
2018-04-15T20:44:20.082Z,11.90
2018-04-15T20:46:47.586Z,11.90
2018-04-15T20:49:15.080Z,11.80
2018-04-15T20:51:43.324Z,11.80
2018-04-15T20:54:10.810Z,11.70
2018-04-15T20:56:39.068Z,11.70
2018-04-15T20:59:06.569Z,11.70
2018-04-15T21:01:34.046Z,11.60
2018-04-15T21:04:01.562Z,11.60
2018-04-15T21:06:29.790Z,11.60
2018-04-15T21:08:57.989Z,11.50
2018-04-15T21:11:26.265Z,11.40
2018-04-15T21:13:53.872Z,11.40
2018-04-15T21:16:21.362Z,11.40
2018-04-15T21:18:48.844Z,11.40
2018-04-15T21:21:16.367Z,11.30
2018-04-15T21:23:43.834Z,11.20
2018-04-15T21:26:11.338Z,11.20
2018-04-15T21:28:39.579Z,11.10
2018-04-15T21:31:07.099Z,11.00
2018-04-15T21:33:34.575Z,11.00
2018-04-15T21:36:02.112Z,10.90
2018-04-15T21:38:29.578Z,10.90
2018-04-15T21:40:57.074Z,10.90
2018-04-15T21:43:24.543Z,10.80
2018-04-15T21:45:52.036Z,10.80
2018-04-15T21:48:19.496Z,10.70
2018-04-15T21:50:47.022Z,10.70
2018-04-15T21:53:15.264Z,10.60
2018-04-15T21:55:42.792Z,10.60
2018-04-15T21:58:10.253Z,10.60
2018-04-15T22:00:37.748Z,10.50
2018-04-15T22:03:05.251Z,10.50
2018-04-15T22:05:32.714Z,10.40
2018-04-15T22:08:00.220Z,10.40
2018-04-15T22:10:27.691Z,10.30
2018-04-15T22:13:05.120Z,10.30
2018-04-15T22:15:32.578Z,10.30
2018-04-15T22:18:00.084Z,10.30
2018-04-15T22:20:27.555Z,10.20
2018-04-15T22:22:55.051Z,10.20
2018-04-15T22:25:22.548Z,10.20
2018-04-15T22:27:50.051Z,10.10
2018-04-15T22:30:18.285Z,10.10
2018-04-15T22:32:45.779Z,10.00
2018-04-15T22:35:13.999Z,10.00
2018-04-15T22:37:41.527Z,10.00
2018-04-15T22:40:09.004Z,10.00
2018-04-15T22:42:36.500Z,10.00
2018-04-15T22:45:03.982Z,9.90
2018-04-15T22:47:32.764Z,9.80
2018-04-15T22:50:05.972Z,9.80
2018-04-15T22:52:34.240Z,9.70
2018-04-15T22:55:02.464Z,9.70
2018-04-15T22:57:29.973Z,9.70
2018-04-15T22:59:58.206Z,9.60
2018-04-15T23:02:25.996Z,9.50
2018-04-15T23:04:53.472Z,9.50
2018-04-15T23:07:21.731Z,9.40
2018-04-15T23:09:49.211Z,9.40
2018-04-15T23:12:17.674Z,9.30
2018-04-15T23:14:45.168Z,9.30
2018-04-15T23:17:12.644Z,9.30
2018-04-15T23:19:40.146Z,9.30
2018-04-15T23:22:07.631Z,9.20
2018-04-15T23:24:35.897Z,9.10
2018-04-15T23:27:04.130Z,9.10
2018-04-15T23:29:31.631Z,9.00
2018-04-15T23:31:59.866Z,9.00
2018-04-15T23:34:27.350Z,9.00
2018-04-15T23:36:54.826Z,9.00
2018-04-15T23:39:23.074Z,8.80
2018-04-15T23:41:50.533Z,8.80
2018-04-15T23:44:18.030Z,8.80
2018-04-15T23:46:45.485Z,8.70
2018-04-15T23:49:13.003Z,8.70
2018-04-15T23:51:40.468Z,8.60
2018-04-15T23:54:07.931Z,8.60
2018-04-15T23:56:35.416Z,8.50
2018-04-15T23:59:02.889Z,8.50
